Time;durP1;ratioP1;P1;durP2;ratioP2;P2;SDS_P1;SDS_P2;PMS_P1;PMS_P2;Temp;Humidity;BMP_temperature;BMP_pressure;BME280_temperature;BME280_humidity;BME280_pressure;Samples;Min_cycle;Max_cycle;Signal;HPM_P1;HPM_P2
2021/10/07 00:02:21;;;;;;;0.60;0.60;;;;;;;;;;7334137;19;154067;-16
2021/10/07 00:04:49;;;;;;;0.57;0.57;;;;;;;;;;7333930;19;153672;-17
2021/10/07 00:07:17;;;;;;;0.73;0.60;;;;;;;;;;7332187;19;162207;-12
2021/10/07 00:09:45;;;;;;;0.50;0.50;;;;;;;;;;7332008;19;162798;-16
2021/10/07 00:12:12;;;;;;;1.23;0.60;;;;;;;;;;7332714;19;154355;-13
2021/10/07 00:14:40;;;;;;;0.60;0.60;;;;;;;;;;7332430;19;153899;-16
2021/10/07 00:17:08;;;;;;;0.60;0.60;;;;;;;;;;7333339;19;161997;-13
2021/10/07 00:19:36;;;;;;;0.60;0.60;;;;;;;;;;7333289;19;162512;-16
2021/10/07 00:22:04;;;;;;;0.70;0.70;;;;;;;;;;7333827;19;154003;-14
2021/10/07 00:24:33;;;;;;;2.03;0.60;;;;;;;;;;7334171;19;153839;-15
2021/10/07 08:44:24;;;;;;;5.07;1.00;;;;;;;;;;7370181;19;132415;-16
2021/10/07 08:46:54;;;;;;;2.30;0.90;;;;;;;;;;7363138;19;153595;-12
2021/10/07 08:49:26;;;;;;;2.55;0.95;;;;;;;;;;7362473;19;162041;-14
2021/10/07 08:51:55;;;;;;;1.98;1.10;;;;;;;;;;7362941;19;162603;-12
2021/10/07 08:54:23;;;;;;;0.90;0.80;;;;;;;;;;7367128;19;154094;-16
2021/10/07 08:56:51;;;;;;;1.90;1.33;;;;;;;;;;7365142;19;153730;-15
2021/10/07 08:59:20;;;;;;;2.10;0.80;;;;;;;;;;7365467;19;161918;-15
2021/10/07 09:01:50;;;;;;;2.38;0.90;;;;;;;;;;7365627;19;162551;-16
2021/10/07 09:04:25;;;;;;;0.93;0.93;;;;;;;;;;7366856;19;154009;-16
2021/10/07 09:07:07;;;;;;;1.02;0.73;;;;;;;;;;7364876;19;153508;-16
2021/10/07 09:09:40;;;;;;;1.45;0.82;;;;;;;;;;7363237;19;162091;-13
2021/10/07 09:12:14;;;;;;;0.77;0.77;;;;;;;;;;7364665;19;162522;-16
2021/10/07 09:14:48;;;;;;;1.25;0.80;;;;;;;;;;7366056;19;154013;-16
2021/10/07 09:17:21;;;;;;;0.93;0.93;;;;;;;;;;7365502;19;153710;-14
2021/10/07 09:19:50;;;;;;;1.45;1.10;;;;;;;;;;7360102;19;162112;-14
2021/10/07 09:22:28;;;;;;;1.92;0.95;;;;;;;;;;7360320;19;162775;-15
2021/10/07 09:24:59;;;;;;;0.85;0.85;;;;;;;;;;7360456;19;154148;-13
2021/10/07 09:27:29;;;;;;;0.95;0.80;;;;;;;;;;7364456;19;153854;-13
2021/10/07 09:30:07;;;;;;;0.77;0.77;;;;;;;;;;7366914;19;161992;-14
2021/10/07 09:32:51;;;;;;;0.73;0.73;;;;;;;;;;7361299;19;162811;-15
2021/10/07 09:35:20;;;;;;;1.17;0.82;;;;;;;;;;7363542;19;154022;-16
2021/10/07 09:37:53;;;;;;;1.08;0.90;;;;;;;;;;7361941;19;153533;-13
2021/10/07 09:40:24;;;;;;;2.60;1.07;;;;;;;;;;7362922;19;161836;-15
2021/10/07 09:43:02;;;;;;;0.95;0.80;;;;;;;;;;7361929;19;162836;-14
2021/10/07 09:45:32;;;;;;;0.82;0.82;;;;;;;;;;7333319;19;153954;-15
2021/10/07 09:48:08;;;;;;;0.93;0.77;;;;;;;;;;7333200;19;154026;-16
2021/10/07 09:50:41;;;;;;;0.80;0.80;;;;;;;;;;7333761;19;161629;-16
2021/10/07 09:53:16;;;;;;;1.08;0.90;;;;;;;;;;7332226;19;163085;-16
2021/10/07 09:55:49;;;;;;;0.95;0.77;;;;;;;;;;7333243;19;154268;-14
2021/10/07 09:58:21;;;;;;;0.70;0.70;;;;;;;;;;7333588;19;153485;-16
2021/10/07 10:00:52;;;;;;;0.70;0.70;;;;;;;;;;7331810;19;162212;-15
2021/10/07 10:03:21;;;;;;;0.80;0.80;;;;;;;;;;7333214;19;162465;-15
2021/10/07 10:05:50;;;;;;;0.90;0.82;;;;;;;;;;7333566;19;153927;-15
2021/10/07 10:08:20;;;;;;;0.80;0.80;;;;;;;;;;7333545;19;153609;-13
2021/10/07 10:10:51;;;;;;;0.70;0.70;;;;;;;;;;7333006;19;162231;-15
2021/10/07 10:13:19;;;;;;;0.63;0.60;;;;;;;;;;7331361;19;162623;-15
2021/10/07 10:15:48;;;;;;;0.85;0.85;;;;;;;;;;7333166;19;154156;-14
2021/10/07 10:18:16;;;;;;;0.80;0.80;;;;;;;;;;7332985;19;153562;-16
2021/10/07 10:20:52;;;;;;;1.10;0.70;;;;;;;;;;7332754;19;161978;-14
2021/10/07 10:23:22;;;;;;;0.80;0.80;;;;;;;;;;7332594;19;162843;-16
2021/10/07 10:26:04;;;;;;;1.13;0.90;;;;;;;;;;7332852;19;153933;-17
2021/10/07 10:28:35;;;;;;;0.63;0.63;;;;;;;;;;7332766;19;153737;-17
2021/10/07 10:31:05;;;;;;;0.80;0.80;;;;;;;;;;7331789;19;161890;-13
2021/10/07 10:33:36;;;;;;;0.60;0.60;;;;;;;;;;7330848;19;162426;-14
2021/10/07 10:36:23;;;;;;;0.52;0.52;;;;;;;;;;7332684;19;153893;-14
2021/10/07 10:39:06;;;;;;;0.70;0.70;;;;;;;;;;7331022;19;153618;-16
2021/10/07 10:41:54;;;;;;;;;;;;;;;;;;7332645;19;161868;-16
2021/10/07 10:44:41;;;;;;;1.08;0.77;;;;;;;;;;7329116;19;162644;-15
2021/10/07 10:47:09;;;;;;;0.70;0.70;;;;;;;;;;7332151;19;154241;-13
2021/10/07 10:49:41;;;;;;;0.80;0.70;;;;;;;;;;7331948;19;153747;-14
2021/10/07 10:52:36;;;;;;;1.17;0.75;;;;;;;;;;7331768;19;161894;-15
2021/10/07 10:55:10;;;;;;;0.60;0.60;;;;;;;;;;7329742;19;162639;-14
2021/10/07 10:57:43;;;;;;;0.60;0.60;;;;;;;;;;7330492;19;154004;-12
2021/10/07 11:00:13;;;;;;;0.77;0.60;;;;;;;;;;7331392;19;153558;-22
2021/10/07 11:02:55;;;;;;;0.80;0.80;;;;;;;;;;7331179;19;162174;-15
2021/10/07 11:05:26;;;;;;;0.70;0.70;;;;;;;;;;7331131;19;162726;-15
2021/10/07 11:08:09;;;;;;;0.80;0.60;;;;;;;;;;7331377;19;154239;-14
2021/10/07 11:10:44;;;;;;;0.80;0.77;;;;;;;;;;7331259;19;153572;-12
2021/10/07 11:13:20;;;;;;;1.58;0.60;;;;;;;;;;7330092;19;162110;-13
2021/10/07 11:15:53;;;;;;;0.60;0.60;;;;;;;;;;7330791;19;162510;-13
2021/10/07 11:18:22;;;;;;;1.20;0.63;;;;;;;;;;7331385;19;154004;-12
2021/10/07 11:20:57;;;;;;;0.60;0.60;;;;;;;;;;7331057;19;153556;-15
2021/10/07 11:23:25;;;;;;;0.70;0.70;;;;;;;;;;7329552;19;161942;-14
2021/10/07 11:25:55;;;;;;;0.52;0.52;;;;;;;;;;7330453;19;162496;-15
2021/10/07 11:28:33;;;;;;;0.73;0.68;;;;;;;;;;7331135;19;154039;-14
2021/10/07 11:31:05;;;;;;;0.63;0.63;;;;;;;;;;7331111;19;153601;-12
2021/10/07 11:33:35;;;;;;;0.65;0.60;;;;;;;;;;7329282;19;162030;-16
2021/10/07 11:36:12;;;;;;;0.70;0.70;;;;;;;;;;7330351;19;162579;-14
2021/10/07 11:38:42;;;;;;;0.80;0.68;;;;;;;;;;7330582;19;153928;-16
2021/10/07 11:41:11;;;;;;;0.77;0.77;;;;;;;;;;7330719;19;153639;-16
2021/10/07 11:43:41;;;;;;;0.60;0.60;;;;;;;;;;7327582;19;161916;-15
2021/10/07 11:46:19;;;;;;;0.60;0.60;;;;;;;;;;7329130;19;162608;-16
2021/10/07 11:48:54;;;;;;;0.70;0.70;;;;;;;;;;7330523;19;153940;-13
2021/10/07 11:51:28;;;;;;;0.50;0.50;;;;;;;;;;7329326;19;153558;-17
2021/10/07 11:54:03;;;;;;;0.60;0.60;;;;;;;;;;7328468;19;161812;-15
2021/10/07 11:56:33;;;;;;;0.70;0.70;;;;;;;;;;7330068;19;162461;-16
2021/10/07 11:59:09;;;;;;;1.42;0.70;;;;;;;;;;7330350;19;153947;-14
2021/10/07 12:01:38;;;;;;;0.77;0.77;;;;;;;;;;7329002;19;153729;-16
2021/10/07 12:04:07;;;;;;;0.60;0.60;;;;;;;;;;7332625;19;162018;-15
2021/10/07 12:06:37;;;;;;;0.70;0.70;;;;;;;;;;7328782;19;162754;-16
2021/10/07 12:09:10;;;;;;;1.02;0.60;;;;;;;;;;7329690;19;153947;-17
2021/10/07 12:11:38;;;;;;;2.20;0.70;;;;;;;;;;7328018;19;153565;-15
2021/10/07 12:14:06;;;;;;;0.52;0.52;;;;;;;;;;7327711;19;161828;-14
2021/10/07 12:16:40;;;;;;;1.25;0.60;;;;;;;;;;7329806;19;162632;-16
2021/10/07 12:19:16;;;;;;;0.60;0.60;;;;;;;;;;7332871;19;155023;-13
2021/10/07 12:21:51;;;;;;;0.52;0.52;;;;;;;;;;7329594;19;153517;-15
2021/10/07 12:24:23;;;;;;;0.65;0.65;;;;;;;;;;7329159;19;161905;-16
2021/10/07 12:26:53;;;;;;;0.70;0.70;;;;;;;;;;7329198;19;162512;-14
2021/10/07 12:29:26;;;;;;;0.60;0.60;;;;;;;;;;7329682;19;154497;-15
2021/10/07 12:32:02;;;;;;;0.60;0.60;;;;;;;;;;7329150;19;153646;-13
2021/10/07 12:34:38;;;;;;;0.60;0.60;;;;;;;;;;7326777;19;162471;-13
2021/10/07 12:37:09;;;;;;;0.40;0.40;;;;;;;;;;7328865;19;162489;-16
2021/10/07 12:39:53;;;;;;;0.60;0.60;;;;;;;;;;7329299;19;153914;-17
2021/10/07 12:42:26;;;;;;;0.60;0.60;;;;;;;;;;7331192;19;153684;-14
2021/10/07 12:44:59;;;;;;;0.50;0.50;;;;;;;;;;7329815;19;162530;-17
2021/10/07 12:47:30;;;;;;;0.57;0.57;;;;;;;;;;7331758;19;162488;-14
2021/10/07 12:50:00;;;;;;;1.27;0.63;;;;;;;;;;7328721;19;154018;-14
2021/10/07 12:52:38;;;;;;;0.60;0.60;;;;;;;;;;7328412;19;153593;-14
2021/10/07 12:55:12;;;;;;;0.57;0.57;;;;;;;;;;7325987;19;161834;-16
2021/10/07 12:57:44;;;;;;;0.60;0.60;;;;;;;;;;7329677;19;162456;-14
2021/10/07 13:00:35;;;;;;;0.70;0.55;;;;;;;;;;7326548;19;154498;-16
2021/10/07 13:03:17;;;;;;;1.08;0.70;;;;;;;;;;7328248;19;154362;-13
2021/10/07 13:05:47;;;;;;;2.08;0.60;;;;;;;;;;7327566;19;162166;-15
2021/10/07 13:08:16;;;;;;;1.42;0.70;;;;;;;;;;7325955;19;162840;-16
2021/10/07 13:10:47;;;;;;;0.80;0.80;;;;;;;;;;7330053;19;154144;-15
2021/10/07 13:13:18;;;;;;;0.60;0.60;;;;;;;;;;7330883;19;153519;-15
2021/10/07 13:15:46;;;;;;;0.80;0.80;;;;;;;;;;7330559;19;162156;-15
2021/10/07 13:18:14;;;;;;;0.85;0.70;;;;;;;;;;7330657;19;162682;-16
2021/10/07 13:20:42;;;;;;;0.90;0.70;;;;;;;;;;7337804;19;154231;-16
2021/10/07 13:23:10;;;;;;;0.40;0.40;;;;;;;;;;7334473;19;153774;-15
2021/10/07 13:25:41;;;;;;;2.58;0.77;;;;;;;;;;7332469;19;161860;-16
2021/10/07 13:28:09;;;;;;;0.47;0.47;;;;;;;;;;7333929;19;162806;-16
2021/10/07 13:30:37;;;;;;;0.52;0.52;;;;;;;;;;7334509;19;153954;-15
2021/10/07 13:33:06;;;;;;;1.75;0.70;;;;;;;;;;7333918;19;153808;-15
2021/10/07 13:35:35;;;;;;;1.05;0.95;;;;;;;;;;7333171;19;161601;-15
2021/10/07 13:38:04;;;;;;;2.55;0.80;;;;;;;;;;7337866;19;162506;-15
2021/10/07 13:40:32;;;;;;;0.73;0.73;;;;;;;;;;7334131;19;154249;-14
2021/10/07 13:43:01;;;;;;;0.70;0.70;;;;;;;;;;7333078;19;153704;-16
2021/10/07 13:45:30;;;;;;;0.80;0.80;;;;;;;;;;7333628;19;161891;-14
2021/10/07 13:48:01;;;;;;;0.80;0.80;;;;;;;;;;7333497;19;162644;-16
2021/10/07 13:50:30;;;;;;;1.13;0.90;;;;;;;;;;7332749;19;153937;-14
2021/10/07 13:52:59;;;;;;;0.65;0.65;;;;;;;;;;7333946;19;153660;-15
2021/10/07 13:55:28;;;;;;;0.73;0.70;;;;;;;;;;7330987;19;162085;-14
2021/10/07 13:57:58;;;;;;;1.05;0.70;;;;;;;;;;7333424;19;162250;-13
2021/10/07 14:00:26;;;;;;;0.80;0.80;;;;;;;;;;7332323;19;154175;-15
2021/10/07 14:02:54;;;;;;;1.02;0.80;;;;;;;;;;7335757;19;153508;-14
2021/10/07 14:05:24;;;;;;;0.70;0.70;;;;;;;;;;7335270;19;161754;-14
2021/10/07 14:07:55;;;;;;;0.70;0.70;;;;;;;;;;7336319;19;162738;-15
2021/10/07 14:10:24;;;;;;;1.35;0.70;;;;;;;;;;7336225;19;154307;-13
2021/10/07 14:12:53;;;;;;;0.90;0.70;;;;;;;;;;7336306;19;153329;-14
2021/10/07 14:15:23;;;;;;;0.60;0.55;;;;;;;;;;7334304;19;162176;-14
2021/10/07 14:17:52;;;;;;;0.85;0.85;;;;;;;;;;7335824;19;162453;-14
2021/10/07 14:20:20;;;;;;;0.80;0.73;;;;;;;;;;7336865;19;153952;-15
2021/10/07 14:22:48;;;;;;;2.15;1.05;;;;;;;;;;7336719;19;153676;-23
2021/10/07 14:25:17;;;;;;;1.75;0.68;;;;;;;;;;7336059;19;161831;-16
2021/10/07 14:27:45;;;;;;;1.05;0.80;;;;;;;;;;7336264;19;162474;-15
2021/10/07 14:30:13;;;;;;;0.95;0.73;;;;;;;;;;7335721;19;154126;-20
2021/10/07 14:32:41;;;;;;;0.95;0.80;;;;;;;;;;7334096;19;153737;-14
2021/10/07 14:35:10;;;;;;;0.98;0.75;;;;;;;;;;7327696;19;162031;-16
2021/10/07 14:37:38;;;;;;;1.65;1.05;;;;;;;;;;7331250;19;162657;-16
2021/10/07 14:40:09;;;;;;;0.80;0.80;;;;;;;;;;7332662;19;153954;-14
2021/10/07 14:42:37;;;;;;;1.00;0.80;;;;;;;;;;7332162;19;153589;-24
2021/10/07 14:45:08;;;;;;;1.38;0.98;;;;;;;;;;7332266;19;161852;-16
2021/10/07 14:47:36;;;;;;;0.98;0.80;;;;;;;;;;7331849;19;162578;-16
2021/10/07 14:50:06;;;;;;;0.75;0.70;;;;;;;;;;7330769;19;154001;-14
2021/10/07 14:52:36;;;;;;;0.80;0.70;;;;;;;;;;7330561;19;153669;-14
2021/10/07 14:55:07;;;;;;;1.30;1.00;;;;;;;;;;7328773;19;161802;-15
2021/10/07 14:57:36;;;;;;;1.52;0.90;;;;;;;;;;7330521;19;162573;-14
2021/10/07 15:00:09;;;;;;;1.17;1.05;;;;;;;;;;7332228;19;154119;-13
2021/10/07 15:02:39;;;;;;;0.95;0.90;;;;;;;;;;7330458;19;153742;-16
2021/10/07 15:05:10;;;;;;;1.33;0.90;;;;;;;;;;7326663;19;162185;-15
2021/10/07 15:07:39;;;;;;;1.52;1.00;;;;;;;;;;7330768;19;162547;-17
2021/10/07 15:10:10;;;;;;;1.00;0.90;;;;;;;;;;7331439;19;154104;-16
2021/10/07 15:12:39;;;;;;;1.00;0.90;;;;;;;;;;7331609;19;153949;-14
2021/10/07 15:15:09;;;;;;;1.55;1.00;;;;;;;;;;7330038;19;161927;-13
2021/10/07 15:17:40;;;;;;;1.42;1.00;;;;;;;;;;7330161;19;162651;-16
2021/10/07 15:20:09;;;;;;;1.50;0.80;;;;;;;;;;7331518;19;153992;-14
2021/10/07 15:22:38;;;;;;;1.05;0.90;;;;;;;;;;7330561;19;153632;-12
2021/10/07 15:25:09;;;;;;;1.73;1.00;;;;;;;;;;7330936;19;161964;-14
2021/10/07 15:27:38;;;;;;;1.35;0.95;;;;;;;;;;7329030;19;162388;-14
2021/10/07 15:30:07;;;;;;;2.30;1.13;;;;;;;;;;7332737;19;154157;-14
2021/10/07 15:32:35;;;;;;;1.00;0.90;;;;;;;;;;7334654;19;153993;-14
2021/10/07 15:35:04;;;;;;;1.45;1.10;;;;;;;;;;7333016;19;162056;-16
2021/10/07 15:37:32;;;;;;;1.80;1.10;;;;;;;;;;7329852;19;162466;-16
2021/10/07 15:40:00;;;;;;;1.05;1.00;;;;;;;;;;7330827;19;154240;-16
2021/10/07 15:42:28;;;;;;;1.02;1.00;;;;;;;;;;7326249;19;153831;-17
2021/10/07 15:44:58;;;;;;;1.30;1.20;;;;;;;;;;7329512;19;161822;-14
2021/10/07 15:47:29;;;;;;;0.98;0.90;;;;;;;;;;7330642;19;162580;-16
2021/10/07 15:50:00;;;;;;;1.75;1.10;;;;;;;;;;7329692;19;153955;-16
2021/10/07 15:52:29;;;;;;;1.58;1.25;;;;;;;;;;7330705;19;153524;-17
2021/10/07 15:54:57;;;;;;;0.95;0.93;;;;;;;;;;7329570;19;161876;-14
2021/10/07 15:57:26;;;;;;;1.75;1.42;;;;;;;;;;7329105;19;162487;-17
2021/10/07 15:59:54;;;;;;;1.30;1.20;;;;;;;;;;7330822;19;153966;-15
2021/10/07 16:02:23;;;;;;;1.58;1.42;;;;;;;;;;7329340;19;153600;-14
2021/10/07 16:04:51;;;;;;;1.60;1.50;;;;;;;;;;7328811;19;161904;-13
2021/10/07 16:07:19;;;;;;;1.60;1.50;;;;;;;;;;7329988;19;162651;-16
2021/10/07 16:09:47;;;;;;;1.25;1.15;;;;;;;;;;7330150;19;154381;-14
2021/10/07 16:12:18;;;;;;;1.63;1.42;;;;;;;;;;7328905;19;153667;-16
2021/10/07 16:15:02;;;;;;;1.50;1.40;;;;;;;;;;7327584;19;161975;-16
2021/10/07 16:17:34;;;;;;;2.72;1.92;;;;;;;;;;7328230;19;162838;-14
2021/10/07 16:20:04;;;;;;;1.88;1.70;;;;;;;;;;7331908;19;154019;-14
2021/10/07 16:22:32;;;;;;;3.17;1.90;;;;;;;;;;7332654;19;153699;-16
2021/10/07 16:25:01;;;;;;;2.60;1.85;;;;;;;;;;7331286;19;161839;-19
2021/10/07 16:27:28;;;;;;;2.03;1.70;;;;;;;;;;7330949;19;162712;-16
2021/10/07 16:29:58;;;;;;;2.00;1.80;;;;;;;;;;7332338;19;153981;-15
2021/10/07 16:32:27;;;;;;;2.03;1.63;;;;;;;;;;7332566;19;154157;-16
2021/10/07 16:34:55;;;;;;;1.48;1.27;;;;;;;;;;7332164;19;161934;-18
2021/10/07 16:37:23;;;;;;;3.58;2.05;;;;;;;;;;7331695;19;162759;-15
2021/10/07 16:39:52;;;;;;;2.33;1.70;;;;;;;;;;7332217;19;154004;-14
2021/10/07 16:42:20;;;;;;;1.83;1.50;;;;;;;;;;7331760;19;153724;-14
2021/10/07 16:44:48;;;;;;;1.17;1.10;;;;;;;;;;7327253;19;162088;-16
2021/10/07 16:47:15;;;;;;;1.85;1.10;;;;;;;;;;7332722;19;164073;-15
2021/10/07 16:49:43;;;;;;;1.30;1.20;;;;;;;;;;7330590;19;154134;-19
2021/10/07 16:52:11;;;;;;;1.75;1.38;;;;;;;;;;7328849;19;153694;-15
2021/10/07 16:54:39;;;;;;;1.23;1.13;;;;;;;;;;7331864;19;161993;-13
2021/10/07 16:57:07;;;;;;;1.02;1.00;;;;;;;;;;7335349;19;162513;-14
2021/10/07 16:59:35;;;;;;;0.80;0.80;;;;;;;;;;7335602;19;154277;-15
2021/10/07 17:02:04;;;;;;;0.68;0.68;;;;;;;;;;7335611;19;153753;-15
2021/10/07 17:04:33;;;;;;;0.80;0.68;;;;;;;;;;7335200;19;161990;-15
2021/10/07 17:07:00;;;;;;;1.10;0.88;;;;;;;;;;7335048;19;162486;-15
2021/10/07 17:09:28;;;;;;;1.50;0.82;;;;;;;;;;7334318;19;154316;-14
2021/10/07 17:12:03;;;;;;;0.90;0.90;;;;;;;;;;7336077;19;153337;-16
2021/10/07 17:14:37;;;;;;;0.75;0.75;;;;;;;;;;7333736;19;162069;-15
2021/10/07 17:17:06;;;;;;;1.05;0.90;;;;;;;;;;7332584;19;162590;-13
2021/10/07 17:19:35;;;;;;;5.15;2.35;;;;;;;;;;7331647;19;154405;-13
2021/10/07 17:22:03;;;;;;;12.48;7.70;;;;;;;;;;7334898;19;153832;-15
2021/10/07 17:24:32;;;;;;;12.68;7.78;;;;;;;;;;7333458;19;161929;-14
2021/10/07 17:27:00;;;;;;;21.98;12.10;;;;;;;;;;7334425;19;162608;-14
2021/10/07 17:29:28;;;;;;;22.48;13.10;;;;;;;;;;7334888;19;154352;-13
2021/10/07 17:31:56;;;;;;;23.20;15.25;;;;;;;;;;7334680;19;153707;-12
2021/10/07 17:34:24;;;;;;;18.08;12.25;;;;;;;;;;7334305;19;162136;-15
2021/10/07 17:36:52;;;;;;;23.52;14.05;;;;;;;;;;7330857;19;162598;-12
2021/10/07 17:39:20;;;;;;;21.08;14.15;;;;;;;;;;7334377;19;153975;-15
2021/10/07 17:41:48;;;;;;;19.55;13.77;;;;;;;;;;7334066;19;153584;-13
2021/10/07 17:44:16;;;;;;;23.50;15.15;;;;;;;;;;7330558;19;161764;-16
2021/10/07 17:46:45;;;;;;;21.52;13.80;;;;;;;;;;7333851;19;162496;-22
2021/10/07 17:49:13;;;;;;;21.40;13.68;;;;;;;;;;7333188;19;154105;-14
2021/10/07 17:51:42;;;;;;;20.85;14.43;;;;;;;;;;7335842;19;153655;-16
2021/10/07 17:54:10;;;;;;;20.05;13.15;;;;;;;;;;7333743;19;161908;-16
2021/10/07 17:56:38;;;;;;;20.70;13.52;;;;;;;;;;7331924;19;162724;-13
2021/10/07 17:59:06;;;;;;;17.60;12.50;;;;;;;;;;7333854;19;154371;-14
2021/10/07 18:01:34;;;;;;;18.27;13.13;;;;;;;;;;7333722;19;153566;-16
2021/10/07 18:04:03;;;;;;;20.15;13.50;;;;;;;;;;7333387;19;161861;-15
2021/10/07 18:06:32;;;;;;;21.02;13.88;;;;;;;;;;7332421;19;162174;-14
2021/10/07 18:09:00;;;;;;;16.92;12.77;;;;;;;;;;7333953;19;154173;-15
2021/10/07 18:11:29;;;;;;;16.73;11.80;;;;;;;;;;7332411;19;153615;-14
2021/10/07 18:13:57;;;;;;;18.90;11.90;;;;;;;;;;7333057;19;161833;-15
2021/10/07 18:16:26;;;;;;;19.15;12.60;;;;;;;;;;7331948;19;162362;-15
2021/10/07 18:18:53;;;;;;;15.10;11.73;;;;;;;;;;7333864;19;153710;-17
2021/10/07 18:21:21;;;;;;;16.20;11.82;;;;;;;;;;7333861;19;153614;-17
2021/10/07 18:23:49;;;;;;;15.98;11.63;;;;;;;;;;7333255;19;162036;-14
2021/10/07 18:26:17;;;;;;;14.45;10.57;;;;;;;;;;7331963;19;162535;-13
2021/10/07 18:28:47;;;;;;;16.42;11.57;;;;;;;;;;7333583;19;154053;-14
2021/10/07 18:31:16;;;;;;;15.73;10.85;;;;;;;;;;7333341;19;153596;-13
2021/10/07 18:33:44;;;;;;;15.35;11.23;;;;;;;;;;7332908;19;162031;-17
2021/10/07 18:36:15;;;;;;;13.85;10.55;;;;;;;;;;7331811;19;162731;-15
2021/10/07 18:38:43;;;;;;;14.10;10.63;;;;;;;;;;7333071;19;154157;-14
2021/10/07 18:41:12;;;;;;;12.70;9.88;;;;;;;;;;7332980;19;153658;-13
2021/10/07 18:43:40;;;;;;;12.93;9.45;;;;;;;;;;7331439;19;161796;-15
2021/10/07 18:46:08;;;;;;;13.57;9.45;;;;;;;;;;7331580;19;162470;-14
2021/10/07 18:48:36;;;;;;;12.00;9.43;;;;;;;;;;7333175;19;153907;-13
2021/10/07 18:51:04;;;;;;;12.32;9.48;;;;;;;;;;7333213;19;153911;-15
2021/10/07 18:53:31;;;;;;;12.30;8.68;;;;;;;;;;7332558;19;161837;-14
2021/10/07 18:55:59;;;;;;;11.85;9.32;;;;;;;;;;7331730;19;162524;-15
2021/10/07 18:58:27;;;;;;;12.50;9.48;;;;;;;;;;7332789;19;154389;-14
2021/10/07 19:00:55;;;;;;;11.30;8.93;;;;;;;;;;7332758;19;153578;-15
2021/10/07 19:03:23;;;;;;;11.25;9.05;;;;;;;;;;7332202;19;161885;-13
2021/10/07 19:05:52;;;;;;;10.32;8.35;;;;;;;;;;7332047;19;162521;-14
2021/10/07 19:08:20;;;;;;;11.07;8.20;;;;;;;;;;7332307;19;154080;-14
2021/10/07 19:10:48;;;;;;;10.85;8.32;;;;;;;;;;7332340;19;153785;-16
2021/10/07 19:13:20;;;;;;;10.05;8.32;;;;;;;;;;7331930;19;163043;-13
2021/10/07 19:15:48;;;;;;;10.15;7.78;;;;;;;;;;7331370;19;162518;-15
2021/10/07 19:18:16;;;;;;;9.73;7.97;;;;;;;;;;7330373;19;154172;-14
2021/10/07 19:20:44;;;;;;;8.98;7.82;;;;;;;;;;7332047;19;153752;-15
2021/10/07 19:23:12;;;;;;;10.68;8.25;;;;;;;;;;7331736;19;162003;-14
2021/10/07 19:25:42;;;;;;;10.52;7.85;;;;;;;;;;7332538;19;162482;-13
2021/10/07 19:28:10;;;;;;;9.50;7.78;;;;;;;;;;7335097;19;154191;-14
2021/10/07 19:30:38;;;;;;;8.52;6.85;;;;;;;;;;7334305;19;153555;-14
2021/10/07 19:33:06;;;;;;;8.82;7.72;;;;;;;;;;7334803;19;161925;-12
2021/10/07 19:35:34;;;;;;;10.05;7.20;;;;;;;;;;7331330;19;162429;-15
2021/10/07 19:38:02;;;;;;;6.88;6.18;;;;;;;;;;7329062;19;153987;-17
2021/10/07 19:40:36;;;;;;;8.20;6.65;;;;;;;;;;7330449;19;153627;-13
2021/10/07 19:43:04;;;;;;;7.80;6.25;;;;;;;;;;7329350;19;162060;-13
2021/10/07 19:45:32;;;;;;;7.53;6.38;;;;;;;;;;7330936;19;162851;-13
2021/10/07 19:48:00;;;;;;;8.18;6.60;;;;;;;;;;7324711;19;154113;-13
2021/10/07 19:50:28;;;;;;;7.60;6.47;;;;;;;;;;7333181;19;153544;-15
2021/10/07 19:52:56;;;;;;;6.97;6.18;;;;;;;;;;7328456;19;162182;-12
2021/10/07 19:55:24;;;;;;;7.13;5.93;;;;;;;;;;7333555;19;162705;-13
2021/10/07 19:57:52;;;;;;;7.85;6.55;;;;;;;;;;7328377;19;154097;-14
2021/10/07 20:00:20;;;;;;;13.35;9.27;;;;;;;;;;7334901;19;153595;-16
2021/10/07 20:02:48;;;;;;;25.73;18.63;;;;;;;;;;7328855;19;163704;-16
2021/10/07 20:05:16;;;;;;;38.92;18.88;;;;;;;;;;7326303;19;162715;-16
2021/10/07 20:07:44;;;;;;;97.85;69.30;;;;;;;;;;7329974;19;154243;-17
2021/10/07 20:10:12;;;;;;;88.38;63.38;;;;;;;;;;7329294;19;153889;-15
2021/10/07 20:12:40;;;;;;;148.52;110.72;;;;;;;;;;7330030;19;161876;-13
2021/10/07 20:15:09;;;;;;;101.57;73.22;;;;;;;;;;7330185;19;162570;-14
2021/10/07 20:17:38;;;;;;;105.72;80.80;;;;;;;;;;7331138;19;154159;-14
2021/10/07 20:20:08;;;;;;;105.32;78.85;;;;;;;;;;7328829;19;153460;-13
2021/10/07 20:22:36;;;;;;;103.60;77.85;;;;;;;;;;7329265;19;161806;-14
2021/10/07 20:25:06;;;;;;;113.60;84.43;;;;;;;;;;7328207;19;162798;-13
2021/10/07 20:27:34;;;;;;;114.80;88.45;;;;;;;;;;7329309;19;154011;-16
2021/10/07 20:30:03;;;;;;;111.78;86.80;;;;;;;;;;7329498;19;153627;-14
2021/10/07 20:32:31;;;;;;;112.05;88.32;;;;;;;;;;7329368;19;161974;-15
2021/10/07 20:35:11;;;;;;;119.60;91.15;;;;;;;;;;7333053;19;162221;-17
2021/10/07 20:37:39;;;;;;;109.55;85.95;;;;;;;;;;7330820;19;153967;-14
2021/10/07 20:40:09;;;;;;;109.95;85.78;;;;;;;;;;7331777;19;153685;-16
2021/10/07 20:42:37;;;;;;;110.35;85.97;;;;;;;;;;7329177;19;161623;-15
2021/10/07 20:45:07;;;;;;;108.47;85.75;;;;;;;;;;7325122;19;162390;-17
2021/10/07 20:47:36;;;;;;;110.75;84.18;;;;;;;;;;7331688;19;154333;-14
2021/10/07 20:50:05;;;;;;;88.45;69.55;;;;;;;;;;7330095;19;153781;-17
2021/10/07 20:52:33;;;;;;;102.90;80.93;;;;;;;;;;7328268;19;161900;-14
2021/10/07 20:55:01;;;;;;;95.68;78.07;;;;;;;;;;7328788;19;162251;-16
2021/10/07 20:57:30;;;;;;;108.32;83.43;;;;;;;;;;7330187;19;153996;-16
2021/10/07 20:59:58;;;;;;;106.00;84.03;;;;;;;;;;7328858;19;153642;-16
2021/10/07 21:02:26;;;;;;;100.55;81.28;;;;;;;;;;7328362;19;161661;-15
2021/10/07 21:04:54;;;;;;;104.70;84.05;;;;;;;;;;7328272;19;162715;-14
2021/10/07 21:07:22;;;;;;;101.85;80.78;;;;;;;;;;7328950;19;153973;-14
2021/10/07 21:09:50;;;;;;;99.25;79.53;;;;;;;;;;7327098;19;154030;-14
2021/10/07 21:12:18;;;;;;;100.53;80.70;;;;;;;;;;7327711;19;161883;-13
2021/10/07 21:14:46;;;;;;;102.65;84.15;;;;;;;;;;7327327;19;162699;-15
2021/10/07 21:17:14;;;;;;;96.38;80.03;;;;;;;;;;7326885;19;153733;-15
2021/10/07 21:19:43;;;;;;;101.05;80.97;;;;;;;;;;7327819;19;153645;-17
2021/10/07 21:22:11;;;;;;;100.57;80.40;;;;;;;;;;7327318;19;161868;-14
2021/10/07 21:24:39;;;;;;;96.70;80.22;;;;;;;;;;7327095;19;162535;-13
2021/10/07 21:27:06;;;;;;;96.07;76.28;;;;;;;;;;7327663;19;154253;-15
2021/10/07 21:29:34;;;;;;;102.82;82.72;;;;;;;;;;7327510;19;153588;-13
2021/10/07 21:32:02;;;;;;;91.80;76.50;;;;;;;;;;7327052;19;162434;-14
2021/10/07 21:34:30;;;;;;;91.88;76.75;;;;;;;;;;7326788;19;162442;-15
2021/10/07 21:37:01;;;;;;;94.82;77.25;;;;;;;;;;7327005;19;153985;-16
2021/10/07 21:39:29;;;;;;;90.95;74.88;;;;;;;;;;7327100;19;153729;-14
2021/10/07 21:41:57;;;;;;;91.68;75.15;;;;;;;;;;7336060;19;162090;-15
2021/10/07 21:44:25;;;;;;;92.82;77.53;;;;;;;;;;7333307;19;162652;-14
2021/10/07 21:46:54;;;;;;;83.68;72.72;;;;;;;;;;7334938;19;154114;-16
2021/10/07 21:49:22;;;;;;;86.65;72.55;;;;;;;;;;7330401;19;154168;-17
2021/10/07 21:51:50;;;;;;;89.20;73.65;;;;;;;;;;7333451;19;161793;-16
2021/10/07 21:54:19;;;;;;;90.80;75.82;;;;;;;;;;7332057;19;162233;-17
2021/10/07 21:56:47;;;;;;;84.65;71.40;;;;;;;;;;7330299;19;153776;-16
2021/10/07 21:59:15;;;;;;;84.68;71.20;;;;;;;;;;7329925;19;154196;-15
2021/10/07 22:01:43;;;;;;;85.88;72.57;;;;;;;;;;7331227;19;162126;-17
2021/10/07 22:04:11;;;;;;;80.72;69.53;;;;;;;;;;7334026;19;162566;-17
2021/10/07 22:06:39;;;;;;;86.72;73.28;;;;;;;;;;7331421;19;153963;-16
2021/10/07 22:09:08;;;;;;;80.45;69.22;;;;;;;;;;7331257;19;153613;-17
2021/10/07 22:11:36;;;;;;;82.72;70.68;;;;;;;;;;7331597;19;161944;-14
2021/10/07 22:14:04;;;;;;;84.05;70.78;;;;;;;;;;7333107;19;162441;-14
2021/10/07 22:16:32;;;;;;;85.80;71.78;;;;;;;;;;7333122;19;154025;-15
2021/10/07 22:19:00;;;;;;;81.88;69.72;;;;;;;;;;7330698;19;153636;-13
2021/10/07 22:21:28;;;;;;;80.90;69.13;;;;;;;;;;7332749;19;161957;-14
2021/10/07 22:23:56;;;;;;;80.30;67.43;;;;;;;;;;7331423;19;162185;-12
2021/10/07 22:26:27;;;;;;;81.03;69.25;;;;;;;;;;7332882;19;154049;-14
2021/10/07 22:28:55;;;;;;;75.07;66.85;;;;;;;;;;7331635;19;153552;-16
2021/10/07 22:31:25;;;;;;;83.13;69.68;;;;;;;;;;7332327;19;162481;-14
2021/10/07 22:33:53;;;;;;;75.70;67.20;;;;;;;;;;7332275;19;162846;-14
2021/10/07 22:36:21;;;;;;;72.88;64.80;;;;;;;;;;7331156;19;154253;-15
2021/10/07 22:38:49;;;;;;;78.88;66.93;;;;;;;;;;7331793;19;153752;-16
2021/10/07 22:41:18;;;;;;;77.22;65.80;;;;;;;;;;7334661;19;161817;-13
2021/10/07 22:43:46;;;;;;;78.32;67.55;;;;;;;;;;7332749;19;162468;-13
2021/10/07 22:46:14;;;;;;;76.65;66.80;;;;;;;;;;7334103;19;154101;-15
2021/10/07 22:48:42;;;;;;;75.70;65.72;;;;;;;;;;7335121;19;153852;-14
2021/10/07 22:51:10;;;;;;;76.20;65.43;;;;;;;;;;7334793;19;161775;-15
2021/10/07 22:53:38;;;;;;;72.07;62.85;;;;;;;;;;7333687;19;162582;-15
2021/10/07 22:56:06;;;;;;;75.28;64.40;;;;;;;;;;7335503;19;153967;-14